sensor_id;sensor_type;location;lat;lon;timestamp;P1;durP1;ratioP1;P2;durP2;ratioP2
75894;SDS011;64573;50.328;15.014;2024-02-23T00:01:02;2.17;;;1.45;;
75894;SDS011;64573;50.328;15.014;2024-02-23T00:03:27;4.20;;;1.73;;
75894;SDS011;64573;50.328;15.014;2024-02-23T00:05:53;3.88;;;1.80;;
75894;SDS011;64573;50.328;15.014;2024-02-23T00:08:18;2.45;;;1.60;;
75894;SDS011;64573;50.328;15.014;2024-02-23T00:10:44;3.90;;;1.67;;
75894;SDS011;64573;50.328;15.014;2024-02-23T00:13:09;2.20;;;1.20;;
75894;SDS011;64573;50.328;15.014;2024-02-23T00:15:35;3.65;;;1.67;;
75894;SDS011;64573;50.328;15.014;2024-02-23T00:18:00;5.25;;;1.92;;
75894;SDS011;64573;50.328;15.014;2024-02-23T00:20:28;2.47;;;1.65;;
75894;SDS011;64573;50.328;15.014;2024-02-23T00:22:53;6.93;;;2.42;;
75894;SDS011;64573;50.328;15.014;2024-02-23T00:25:19;2.83;;;2.03;;
75894;SDS011;64573;50.328;15.014;2024-02-23T00:27:44;2.42;;;1.70;;
75894;SDS011;64573;50.328;15.014;2024-02-23T00:30:11;5.30;;;1.80;;
75894;SDS011;64573;50.328;15.014;2024-02-23T00:32:37;3.60;;;1.75;;
75894;SDS011;64573;50.328;15.014;2024-02-23T00:35:03;2.88;;;1.65;;
75894;SDS011;64573;50.328;15.014;2024-02-23T00:37:28;2.90;;;1.88;;
75894;SDS011;64573;50.328;15.014;2024-02-23T00:39:54;3.05;;;1.92;;
75894;SDS011;64573;50.328;15.014;2024-02-23T00:42:19;2.55;;;1.60;;
75894;SDS011;64573;50.328;15.014;2024-02-23T00:44:46;3.50;;;1.67;;
75894;SDS011;64573;50.328;15.014;2024-02-23T00:47:11;2.75;;;1.42;;
75894;SDS011;64573;50.328;15.014;2024-02-23T00:49:36;2.25;;;1.60;;
75894;SDS011;64573;50.328;15.014;2024-02-23T00:52:02;1.60;;;1.40;;
75894;SDS011;64573;50.328;15.014;2024-02-23T00:56:56;2.90;;;1.73;;
75894;SDS011;64573;50.328;15.014;2024-02-23T00:59:22;2.75;;;1.90;;
75894;SDS011;64573;50.328;15.014;2024-02-23T01:01:47;3.50;;;1.88;;
75894;SDS011;64573;50.328;15.014;2024-02-23T01:04:12;2.75;;;1.92;;
75894;SDS011;64573;50.328;15.014;2024-02-23T01:06:38;2.47;;;1.60;;
75894;SDS011;64573;50.328;15.014;2024-02-23T01:09:03;2.65;;;1.70;;
75894;SDS011;64573;50.328;15.014;2024-02-23T01:11:29;3.20;;;1.88;;
75894;SDS011;64573;50.328;15.014;2024-02-23T01:13:54;3.00;;;1.50;;
75894;SDS011;64573;50.328;15.014;2024-02-23T01:16:20;3.30;;;1.55;;
75894;SDS011;64573;50.328;15.014;2024-02-23T01:18:45;2.88;;;1.58;;
75894;SDS011;64573;50.328;15.014;2024-02-23T01:21:10;5.43;;;2.00;;
75894;SDS011;64573;50.328;15.014;2024-02-23T01:23:36;2.13;;;1.60;;
75894;SDS011;64573;50.328;15.014;2024-02-23T01:26:01;3.67;;;1.85;;
75894;SDS011;64573;50.328;15.014;2024-02-23T01:28:27;3.25;;;1.83;;
75894;SDS011;64573;50.328;15.014;2024-02-23T01:30:52;2.85;;;1.70;;
75894;SDS011;64573;50.328;15.014;2024-02-23T01:33:18;2.40;;;1.85;;
75894;SDS011;64573;50.328;15.014;2024-02-23T01:35:43;2.67;;;1.30;;
75894;SDS011;64573;50.328;15.014;2024-02-23T01:38:09;2.63;;;1.60;;
75894;SDS011;64573;50.328;15.014;2024-02-23T01:40:34;1.52;;;1.25;;
75894;SDS011;64573;50.328;15.014;2024-02-23T01:43:08;2.00;;;1.40;;
75894;SDS011;64573;50.328;15.014;2024-02-23T01:45:34;2.10;;;1.40;;
75894;SDS011;64573;50.328;15.014;2024-02-23T01:47:59;1.65;;;1.08;;
75894;SDS011;64573;50.328;15.014;2024-02-23T01:50:26;1.88;;;1.38;;
75894;SDS011;64573;50.328;15.014;2024-02-23T01:52:52;2.03;;;1.30;;
75894;SDS011;64573;50.328;15.014;2024-02-23T01:55:19;2.75;;;1.70;;
75894;SDS011;64573;50.328;15.014;2024-02-23T01:57:45;1.40;;;1.00;;
75894;SDS011;64573;50.328;15.014;2024-02-23T02:00:14;1.75;;;1.15;;
75894;SDS011;64573;50.328;15.014;2024-02-23T02:02:41;2.60;;;1.30;;
75894;SDS011;64573;50.328;15.014;2024-02-23T02:05:07;2.55;;;1.48;;
75894;SDS011;64573;50.328;15.014;2024-02-23T02:07:33;1.67;;;1.08;;
75894;SDS011;64573;50.328;15.014;2024-02-23T02:09:59;2.78;;;1.20;;
75894;SDS011;64573;50.328;15.014;2024-02-23T02:12:28;1.55;;;1.00;;
75894;SDS011;64573;50.328;15.014;2024-02-23T02:14:53;1.77;;;1.05;;
75894;SDS011;64573;50.328;15.014;2024-02-23T02:17:20;1.55;;;0.75;;
75894;SDS011;64573;50.328;15.014;2024-02-23T02:19:49;1.20;;;0.88;;
75894;SDS011;64573;50.328;15.014;2024-02-23T02:22:14;0.98;;;0.80;;
75894;SDS011;64573;50.328;15.014;2024-02-23T02:24:39;1.38;;;0.70;;
75894;SDS011;64573;50.328;15.014;2024-02-23T02:27:08;1.25;;;0.77;;
75894;SDS011;64573;50.328;15.014;2024-02-23T02:29:34;1.13;;;0.60;;
75894;SDS011;64573;50.328;15.014;2024-02-23T02:32:00;0.95;;;0.60;;
75894;SDS011;64573;50.328;15.014;2024-02-23T02:34:25;0.63;;;0.60;;
75894;SDS011;64573;50.328;15.014;2024-02-23T02:36:51;1.42;;;0.63;;
75894;SDS011;64573;50.328;15.014;2024-02-23T02:39:16;0.70;;;0.60;;
75894;SDS011;64573;50.328;15.014;2024-02-23T02:41:41;0.60;;;0.50;;
75894;SDS011;64573;50.328;15.014;2024-02-23T02:44:07;0.52;;;0.50;;
75894;SDS011;64573;50.328;15.014;2024-02-23T02:46:34;0.40;;;0.40;;
75894;SDS011;64573;50.328;15.014;2024-02-23T02:49:00;0.95;;;0.80;;
75894;SDS011;64573;50.328;15.014;2024-02-23T02:51:25;0.75;;;0.60;;
75894;SDS011;64573;50.328;15.014;2024-02-23T02:53:51;2.28;;;0.73;;
75894;SDS011;64573;50.328;15.014;2024-02-23T02:56:16;0.47;;;0.43;;
75894;SDS011;64573;50.328;15.014;2024-02-23T02:58:41;2.33;;;0.50;;
75894;SDS011;64573;50.328;15.014;2024-02-23T03:01:07;0.70;;;0.60;;
75894;SDS011;64573;50.328;15.014;2024-02-23T03:03:33;0.88;;;0.40;;
75894;SDS011;64573;50.328;15.014;2024-02-23T03:05:59;0.60;;;0.50;;
75894;SDS011;64573;50.328;15.014;2024-02-23T03:08:24;1.02;;;0.38;;
75894;SDS011;64573;50.328;15.014;2024-02-23T03:10:51;2.28;;;0.70;;
75894;SDS011;64573;50.328;15.014;2024-02-23T03:13:16;0.85;;;0.50;;
75894;SDS011;64573;50.328;15.014;2024-02-23T03:15:42;0.65;;;0.45;;
75894;SDS011;64573;50.328;15.014;2024-02-23T03:18:07;0.40;;;0.40;;
75894;SDS011;64573;50.328;15.014;2024-02-23T03:20:34;0.50;;;0.40;;
75894;SDS011;64573;50.328;15.014;2024-02-23T03:22:59;0.63;;;0.40;;
75894;SDS011;64573;50.328;15.014;2024-02-23T03:25:26;0.80;;;0.40;;
75894;SDS011;64573;50.328;15.014;2024-02-23T03:27:51;0.30;;;0.30;;
75894;SDS011;64573;50.328;15.014;2024-02-23T03:30:17;0.50;;;0.40;;
75894;SDS011;64573;50.328;15.014;2024-02-23T03:32:42;0.32;;;0.32;;
75894;SDS011;64573;50.328;15.014;2024-02-23T03:35:07;0.28;;;0.28;;
75894;SDS011;64573;50.328;15.014;2024-02-23T03:37:33;0.60;;;0.35;;
75894;SDS011;64573;50.328;15.014;2024-02-23T03:39:58;0.63;;;0.40;;
75894;SDS011;64573;50.328;15.014;2024-02-23T03:42:27;1.98;;;0.70;;
75894;SDS011;64573;50.328;15.014;2024-02-23T03:44:52;1.40;;;0.50;;
75894;SDS011;64573;50.328;15.014;2024-02-23T03:47:18;0.38;;;0.38;;
75894;SDS011;64573;50.328;15.014;2024-02-23T03:49:43;0.20;;;0.20;;
75894;SDS011;64573;50.328;15.014;2024-02-23T03:52:09;0.30;;;0.30;;
75894;SDS011;64573;50.328;15.014;2024-02-23T03:54:34;0.63;;;0.30;;
75894;SDS011;64573;50.328;15.014;2024-02-23T03:56:59;0.35;;;0.35;;
75894;SDS011;64573;50.328;15.014;2024-02-23T03:59:25;0.43;;;0.40;;
75894;SDS011;64573;50.328;15.014;2024-02-23T04:01:50;0.50;;;0.45;;
75894;SDS011;64573;50.328;15.014;2024-02-23T04:04:15;1.70;;;0.40;;
75894;SDS011;64573;50.328;15.014;2024-02-23T04:06:41;1.00;;;0.52;;
75894;SDS011;64573;50.328;15.014;2024-02-23T04:09:06;0.77;;;0.50;;
75894;SDS011;64573;50.328;15.014;2024-02-23T04:11:33;0.80;;;0.50;;
75894;SDS011;64573;50.328;15.014;2024-02-23T04:13:59;1.50;;;0.60;;
75894;SDS011;64573;50.328;15.014;2024-02-23T04:16:25;1.83;;;0.73;;
75894;SDS011;64573;50.328;15.014;2024-02-23T04:18:51;1.00;;;0.45;;
75894;SDS011;64573;50.328;15.014;2024-02-23T04:21:16;0.73;;;0.60;;
75894;SDS011;64573;50.328;15.014;2024-02-23T04:23:42;0.80;;;0.50;;
75894;SDS011;64573;50.328;15.014;2024-02-23T04:26:08;0.50;;;0.40;;
75894;SDS011;64573;50.328;15.014;2024-02-23T04:28:34;1.05;;;0.60;;
75894;SDS011;64573;50.328;15.014;2024-02-23T04:30:59;0.70;;;0.40;;
75894;SDS011;64573;50.328;15.014;2024-02-23T04:33:25;0.90;;;0.60;;
75894;SDS011;64573;50.328;15.014;2024-02-23T04:35:51;0.93;;;0.60;;
75894;SDS011;64573;50.328;15.014;2024-02-23T04:38:16;0.82;;;0.68;;
75894;SDS011;64573;50.328;15.014;2024-02-23T04:40:42;0.50;;;0.40;;
75894;SDS011;64573;50.328;15.014;2024-02-23T04:43:07;2.30;;;0.60;;
75894;SDS011;64573;50.328;15.014;2024-02-23T04:45:32;0.90;;;0.50;;
75894;SDS011;64573;50.328;15.014;2024-02-23T04:47:58;1.02;;;0.50;;
75894;SDS011;64573;50.328;15.014;2024-02-23T04:50:23;0.68;;;0.43;;
75894;SDS011;64573;50.328;15.014;2024-02-23T04:52:49;0.55;;;0.40;;
75894;SDS011;64573;50.328;15.014;2024-02-23T04:55:15;0.90;;;0.50;;
75894;SDS011;64573;50.328;15.014;2024-02-23T04:57:40;0.55;;;0.47;;
75894;SDS011;64573;50.328;15.014;2024-02-23T05:00:06;1.10;;;0.80;;
75894;SDS011;64573;50.328;15.014;2024-02-23T05:02:32;0.77;;;0.50;;
75894;SDS011;64573;50.328;15.014;2024-02-23T05:05:00;1.00;;;0.60;;
75894;SDS011;64573;50.328;15.014;2024-02-23T05:07:29;1.30;;;0.55;;
75894;SDS011;64573;50.328;15.014;2024-02-23T05:09:58;1.02;;;0.40;;
75894;SDS011;64573;50.328;15.014;2024-02-23T05:12:23;0.93;;;0.50;;
75894;SDS011;64573;50.328;15.014;2024-02-23T05:14:49;0.30;;;0.30;;
75894;SDS011;64573;50.328;15.014;2024-02-23T05:17:14;4.03;;;0.60;;
75894;SDS011;64573;50.328;15.014;2024-02-23T05:19:39;0.80;;;0.50;;
75894;SDS011;64573;50.328;15.014;2024-02-23T05:22:04;0.57;;;0.50;;
75894;SDS011;64573;50.328;15.014;2024-02-23T05:24:30;0.95;;;0.50;;
75894;SDS011;64573;50.328;15.014;2024-02-23T05:26:55;0.98;;;0.55;;
75894;SDS011;64573;50.328;15.014;2024-02-23T05:29:22;1.15;;;0.70;;
75894;SDS011;64573;50.328;15.014;2024-02-23T05:31:52;0.82;;;0.50;;
75894;SDS011;64573;50.328;15.014;2024-02-23T05:34:18;0.93;;;0.30;;
75894;SDS011;64573;50.328;15.014;2024-02-23T05:36:44;0.50;;;0.43;;
75894;SDS011;64573;50.328;15.014;2024-02-23T05:39:11;0.30;;;0.30;;
75894;SDS011;64573;50.328;15.014;2024-02-23T05:41:37;0.60;;;0.40;;
75894;SDS011;64573;50.328;15.014;2024-02-23T05:44:03;0.20;;;0.20;;
75894;SDS011;64573;50.328;15.014;2024-02-23T05:46:30;0.43;;;0.40;;
75894;SDS011;64573;50.328;15.014;2024-02-23T05:49:00;1.52;;;0.30;;
75894;SDS011;64573;50.328;15.014;2024-02-23T05:51:26;0.80;;;0.60;;
75894;SDS011;64573;50.328;15.014;2024-02-23T05:53:54;1.55;;;0.60;;
75894;SDS011;64573;50.328;15.014;2024-02-23T05:56:19;1.20;;;0.40;;
75894;SDS011;64573;50.328;15.014;2024-02-23T05:58:45;1.33;;;0.55;;
75894;SDS011;64573;50.328;15.014;2024-02-23T06:01:10;0.22;;;0.22;;
75894;SDS011;64573;50.328;15.014;2024-02-23T06:03:35;0.68;;;0.47;;
75894;SDS011;64573;50.328;15.014;2024-02-23T06:06:01;1.27;;;0.43;;
75894;SDS011;64573;50.328;15.014;2024-02-23T06:08:26;0.35;;;0.35;;
75894;SDS011;64573;50.328;15.014;2024-02-23T06:10:51;0.90;;;0.40;;
75894;SDS011;64573;50.328;15.014;2024-02-23T06:13:17;0.85;;;0.52;;
75894;SDS011;64573;50.328;15.014;2024-02-23T06:15:42;1.65;;;0.73;;
75894;SDS011;64573;50.328;15.014;2024-02-23T06:18:08;1.35;;;0.50;;
75894;SDS011;64573;50.328;15.014;2024-02-23T06:20:33;1.10;;;0.60;;
75894;SDS011;64573;50.328;15.014;2024-02-23T06:22:59;1.15;;;0.40;;
75894;SDS011;64573;50.328;15.014;2024-02-23T06:25:24;2.45;;;0.47;;
75894;SDS011;64573;50.328;15.014;2024-02-23T06:27:49;0.38;;;0.30;;
75894;SDS011;64573;50.328;15.014;2024-02-23T06:30:15;1.80;;;0.50;;
75894;SDS011;64573;50.328;15.014;2024-02-23T06:32:40;2.22;;;0.70;;
75894;SDS011;64573;50.328;15.014;2024-02-23T06:35:05;1.20;;;0.40;;
75894;SDS011;64573;50.328;15.014;2024-02-23T06:37:31;0.70;;;0.50;;
75894;SDS011;64573;50.328;15.014;2024-02-23T06:39:57;0.45;;;0.40;;
75894;SDS011;64573;50.328;15.014;2024-02-23T06:42:23;0.40;;;0.38;;
75894;SDS011;64573;50.328;15.014;2024-02-23T06:44:49;1.70;;;0.47;;
75894;SDS011;64573;50.328;15.014;2024-02-23T06:47:14;0.60;;;0.45;;
75894;SDS011;64573;50.328;15.014;2024-02-23T06:49:43;0.68;;;0.50;;
75894;SDS011;64573;50.328;15.014;2024-02-23T06:52:09;0.30;;;0.30;;
75894;SDS011;64573;50.328;15.014;2024-02-23T06:54:35;2.83;;;0.60;;
75894;SDS011;64573;50.328;15.014;2024-02-23T06:57:00;0.57;;;0.30;;
75894;SDS011;64573;50.328;15.014;2024-02-23T06:59:25;0.63;;;0.40;;
75894;SDS011;64573;50.328;15.014;2024-02-23T07:01:51;0.30;;;0.20;;
75894;SDS011;64573;50.328;15.014;2024-02-23T07:04:17;0.30;;;0.25;;
75894;SDS011;64573;50.328;15.014;2024-02-23T07:06:42;0.90;;;0.50;;
75894;SDS011;64573;50.328;15.014;2024-02-23T07:09:08;0.30;;;0.30;;
75894;SDS011;64573;50.328;15.014;2024-02-23T07:11:34;1.20;;;0.40;;
75894;SDS011;64573;50.328;15.014;2024-02-23T07:13:59;0.30;;;0.30;;
75894;SDS011;64573;50.328;15.014;2024-02-23T07:16:25;1.08;;;0.22;;
75894;SDS011;64573;50.328;15.014;2024-02-23T07:18:50;1.02;;;0.30;;
75894;SDS011;64573;50.328;15.014;2024-02-23T07:21:19;1.35;;;0.50;;
75894;SDS011;64573;50.328;15.014;2024-02-23T07:23:44;0.75;;;0.20;;
75894;SDS011;64573;50.328;15.014;2024-02-23T07:26:09;0.70;;;0.28;;
75894;SDS011;64573;50.328;15.014;2024-02-23T07:28:35;2.00;;;0.45;;
75894;SDS011;64573;50.328;15.014;2024-02-23T07:31:00;1.83;;;0.60;;
75894;SDS011;64573;50.328;15.014;2024-02-23T07:33:25;0.30;;;0.30;;
75894;SDS011;64573;50.328;15.014;2024-02-23T07:35:51;0.95;;;0.50;;
75894;SDS011;64573;50.328;15.014;2024-02-23T07:38:16;2.20;;;0.80;;
75894;SDS011;64573;50.328;15.014;2024-02-23T07:40:43;3.72;;;0.80;;
75894;SDS011;64573;50.328;15.014;2024-02-23T07:43:09;1.45;;;0.80;;
75894;SDS011;64573;50.328;15.014;2024-02-23T07:45:36;1.23;;;0.90;;
75894;SDS011;64573;50.328;15.014;2024-02-23T07:48:02;3.03;;;0.55;;
75894;SDS011;64573;50.328;15.014;2024-02-23T07:50:28;0.50;;;0.40;;
75894;SDS011;64573;50.328;15.014;2024-02-23T07:52:56;1.60;;;0.60;;
75894;SDS011;64573;50.328;15.014;2024-02-23T07:55:21;0.45;;;0.35;;
75894;SDS011;64573;50.328;15.014;2024-02-23T07:57:47;0.55;;;0.40;;
75894;SDS011;64573;50.328;15.014;2024-02-23T08:00:21;0.80;;;0.32;;
75894;SDS011;64573;50.328;15.014;2024-02-23T08:02:47;0.30;;;0.30;;
75894;SDS011;64573;50.328;15.014;2024-02-23T08:05:12;1.00;;;0.50;;
75894;SDS011;64573;50.328;15.014;2024-02-23T08:07:38;1.98;;;0.50;;
75894;SDS011;64573;50.328;15.014;2024-02-23T08:10:04;2.28;;;0.82;;
75894;SDS011;64573;50.328;15.014;2024-02-23T08:12:30;3.42;;;0.85;;
75894;SDS011;64573;50.328;15.014;2024-02-23T08:14:55;1.58;;;0.80;;
75894;SDS011;64573;50.328;15.014;2024-02-23T08:17:20;3.08;;;1.00;;
75894;SDS011;64573;50.328;15.014;2024-02-23T08:19:46;1.17;;;0.68;;
75894;SDS011;64573;50.328;15.014;2024-02-23T08:22:12;1.45;;;0.80;;
75894;SDS011;64573;50.328;15.014;2024-02-23T08:24:37;2.67;;;0.77;;
75894;SDS011;64573;50.328;15.014;2024-02-23T08:27:02;0.77;;;0.70;;
75894;SDS011;64573;50.328;15.014;2024-02-23T08:29:28;2.10;;;0.75;;
75894;SDS011;64573;50.328;15.014;2024-02-23T08:31:53;1.17;;;0.60;;
75894;SDS011;64573;50.328;15.014;2024-02-23T08:34:19;0.60;;;0.52;;
75894;SDS011;64573;50.328;15.014;2024-02-23T08:36:44;0.60;;;0.60;;
75894;SDS011;64573;50.328;15.014;2024-02-23T08:39:09;1.10;;;0.80;;
75894;SDS011;64573;50.328;15.014;2024-02-23T08:41:35;0.93;;;0.55;;
75894;SDS011;64573;50.328;15.014;2024-02-23T08:44:00;1.40;;;0.63;;
75894;SDS011;64573;50.328;15.014;2024-02-23T08:46:26;2.45;;;0.63;;
75894;SDS011;64573;50.328;15.014;2024-02-23T08:48:51;1.20;;;0.50;;
75894;SDS011;64573;50.328;15.014;2024-02-23T08:51:16;1.08;;;0.60;;
75894;SDS011;64573;50.328;15.014;2024-02-23T08:53:42;2.15;;;0.70;;
75894;SDS011;64573;50.328;15.014;2024-02-23T08:56:08;1.00;;;0.60;;
75894;SDS011;64573;50.328;15.014;2024-02-23T08:58:34;2.33;;;0.70;;
75894;SDS011;64573;50.328;15.014;2024-02-23T09:00:59;0.95;;;0.65;;
75894;SDS011;64573;50.328;15.014;2024-02-23T09:03:25;6.53;;;1.00;;
75894;SDS011;64573;50.328;15.014;2024-02-23T09:05:50;2.28;;;0.98;;
75894;SDS011;64573;50.328;15.014;2024-02-23T09:08:15;2.15;;;0.82;;
75894;SDS011;64573;50.328;15.014;2024-02-23T09:10:41;3.00;;;1.52;;
75894;SDS011;64573;50.328;15.014;2024-02-23T09:13:06;2.97;;;0.93;;
75894;SDS011;64573;50.328;15.014;2024-02-23T09:15:34;2.22;;;0.82;;
75894;SDS011;64573;50.328;15.014;2024-02-23T09:17:59;5.38;;;0.80;;
75894;SDS011;64573;50.328;15.014;2024-02-23T09:20:25;3.30;;;0.80;;
75894;SDS011;64573;50.328;15.014;2024-02-23T09:22:51;0.90;;;0.70;;
75894;SDS011;64573;50.328;15.014;2024-02-23T09:25:18;2.30;;;0.80;;
75894;SDS011;64573;50.328;15.014;2024-02-23T09:27:44;1.20;;;0.70;;
75894;SDS011;64573;50.328;15.014;2024-02-23T09:30:10;1.55;;;0.70;;
75894;SDS011;64573;50.328;15.014;2024-02-23T09:32:37;0.90;;;0.60;;
75894;SDS011;64573;50.328;15.014;2024-02-23T09:35:02;1.08;;;0.90;;
75894;SDS011;64573;50.328;15.014;2024-02-23T09:37:28;1.40;;;0.73;;
75894;SDS011;64573;50.328;15.014;2024-02-23T09:39:54;4.07;;;0.90;;
75894;SDS011;64573;50.328;15.014;2024-02-23T09:42:19;2.35;;;0.70;;
75894;SDS011;64573;50.328;15.014;2024-02-23T09:44:50;1.02;;;0.77;;
75894;SDS011;64573;50.328;15.014;2024-02-23T09:49:49;1.45;;;0.77;;
75894;SDS011;64573;50.328;15.014;2024-02-23T09:52:16;2.65;;;0.90;;
75894;SDS011;64573;50.328;15.014;2024-02-23T09:54:47;2.92;;;1.17;;
75894;SDS011;64573;50.328;15.014;2024-02-23T09:57:13;2.78;;;0.80;;
75894;SDS011;64573;50.328;15.014;2024-02-23T09:59:39;1.23;;;0.68;;
75894;SDS011;64573;50.328;15.014;2024-02-23T10:02:07;5.43;;;1.20;;
75894;SDS011;64573;50.328;15.014;2024-02-23T10:04:37;4.45;;;1.13;;
75894;SDS011;64573;50.328;15.014;2024-02-23T10:07:04;1.13;;;0.90;;
75894;SDS011;64573;50.328;15.014;2024-02-23T10:09:30;3.63;;;0.90;;
75894;SDS011;64573;50.328;15.014;2024-02-23T10:11:58;2.58;;;0.90;;
75894;SDS011;64573;50.328;15.014;2024-02-23T10:14:23;4.53;;;1.02;;
75894;SDS011;64573;50.328;15.014;2024-02-23T10:16:50;2.60;;;0.90;;
75894;SDS011;64573;50.328;15.014;2024-02-23T10:19:19;2.22;;;0.70;;
75894;SDS011;64573;50.328;15.014;2024-02-23T10:21:47;1.50;;;0.82;;
75894;SDS011;64573;50.328;15.014;2024-02-23T10:26:42;1.80;;;0.70;;
75894;SDS011;64573;50.328;15.014;2024-02-23T10:29:07;6.97;;;1.20;;
75894;SDS011;64573;50.328;15.014;2024-02-23T10:31:36;2.10;;;0.60;;
75894;SDS011;64573;50.328;15.014;2024-02-23T10:34:04;1.50;;;0.82;;
75894;SDS011;64573;50.328;15.014;2024-02-23T10:36:36;1.10;;;0.70;;
75894;SDS011;64573;50.328;15.014;2024-02-23T10:39:01;6.22;;;2.28;;
75894;SDS011;64573;50.328;15.014;2024-02-23T10:41:30;1.40;;;0.70;;
75894;SDS011;64573;50.328;15.014;2024-02-23T10:44:04;1.92;;;0.60;;
75894;SDS011;64573;50.328;15.014;2024-02-23T10:46:31;3.05;;;1.00;;
75894;SDS011;64573;50.328;15.014;2024-02-23T10:48:57;2.22;;;0.80;;
75894;SDS011;64573;50.328;15.014;2024-02-23T10:51:24;1.42;;;0.80;;
75894;SDS011;64573;50.328;15.014;2024-02-23T10:53:50;1.58;;;0.70;;
75894;SDS011;64573;50.328;15.014;2024-02-23T10:56:17;0.68;;;0.63;;
75894;SDS011;64573;50.328;15.014;2024-02-23T10:58:44;3.50;;;0.65;;
75894;SDS011;64573;50.328;15.014;2024-02-23T11:01:10;0.90;;;0.50;;
75894;SDS011;64573;50.328;15.014;2024-02-23T11:03:37;1.55;;;0.70;;
75894;SDS011;64573;50.328;15.014;2024-02-23T11:06:08;2.60;;;0.90;;
75894;SDS011;64573;50.328;15.014;2024-02-23T11:08:34;3.47;;;0.90;;
75894;SDS011;64573;50.328;15.014;2024-02-23T11:11:07;1.65;;;0.82;;
75894;SDS011;64573;50.328;15.014;2024-02-23T11:13:36;3.00;;;0.80;;
75894;SDS011;64573;50.328;15.014;2024-02-23T11:16:02;1.98;;;0.60;;
75894;SDS011;64573;50.328;15.014;2024-02-23T11:18:28;1.42;;;0.63;;
75894;SDS011;64573;50.328;15.014;2024-02-23T11:20:55;1.65;;;0.77;;
75894;SDS011;64573;50.328;15.014;2024-02-23T11:23:23;2.08;;;0.75;;
75894;SDS011;64573;50.328;15.014;2024-02-23T11:28:27;3.13;;;0.63;;
75894;SDS011;64573;50.328;15.014;2024-02-23T11:30:53;1.50;;;0.85;;
75894;SDS011;64573;50.328;15.014;2024-02-23T11:33:25;1.20;;;0.80;;
75894;SDS011;64573;50.328;15.014;2024-02-23T11:36:04;1.67;;;0.73;;
75894;SDS011;64573;50.328;15.014;2024-02-23T11:38:33;2.55;;;0.75;;
75894;SDS011;64573;50.328;15.014;2024-02-23T11:40:59;1.95;;;0.82;;
75894;SDS011;64573;50.328;15.014;2024-02-23T11:43:26;2.53;;;0.90;;
75894;SDS011;64573;50.328;15.014;2024-02-23T11:45:52;1.95;;;0.70;;
75894;SDS011;64573;50.328;15.014;2024-02-23T11:48:17;4.32;;;1.02;;
75894;SDS011;64573;50.328;15.014;2024-02-23T11:50:43;4.97;;;1.05;;
75894;SDS011;64573;50.328;15.014;2024-02-23T11:53:08;2.05;;;0.80;;
75894;SDS011;64573;50.328;15.014;2024-02-23T11:55:34;1.30;;;0.60;;
75894;SDS011;64573;50.328;15.014;2024-02-23T11:57:59;3.85;;;0.88;;
75894;SDS011;64573;50.328;15.014;2024-02-23T12:00:26;0.55;;;0.47;;
75894;SDS011;64573;50.328;15.014;2024-02-23T12:02:51;1.55;;;0.70;;
75894;SDS011;64573;50.328;15.014;2024-02-23T12:05:16;1.88;;;0.60;;
75894;SDS011;64573;50.328;15.014;2024-02-23T12:07:42;2.40;;;0.80;;
75894;SDS011;64573;50.328;15.014;2024-02-23T12:10:08;1.40;;;0.80;;
75894;SDS011;64573;50.328;15.014;2024-02-23T12:12:35;1.63;;;0.60;;
75894;SDS011;64573;50.328;15.014;2024-02-23T12:15:01;2.67;;;0.95;;
75894;SDS011;64573;50.328;15.014;2024-02-23T12:17:27;2.80;;;0.73;;
75894;SDS011;64573;50.328;15.014;2024-02-23T12:20:01;1.23;;;0.60;;
75894;SDS011;64573;50.328;15.014;2024-02-23T12:22:27;1.92;;;0.70;;
75894;SDS011;64573;50.328;15.014;2024-02-23T12:24:56;1.35;;;0.60;;
75894;SDS011;64573;50.328;15.014;2024-02-23T12:27:22;3.63;;;0.68;;
75894;SDS011;64573;50.328;15.014;2024-02-23T12:29:53;4.20;;;0.60;;
75894;SDS011;64573;50.328;15.014;2024-02-23T12:32:20;1.50;;;0.40;;
75894;SDS011;64573;50.328;15.014;2024-02-23T12:34:46;2.47;;;0.52;;
75894;SDS011;64573;50.328;15.014;2024-02-23T12:37:18;1.48;;;0.68;;
75894;SDS011;64573;50.328;15.014;2024-02-23T12:39:44;2.58;;;0.90;;
75894;SDS011;64573;50.328;15.014;2024-02-23T12:42:10;1.95;;;0.70;;
75894;SDS011;64573;50.328;15.014;2024-02-23T12:44:35;2.70;;;0.82;;
75894;SDS011;64573;50.328;15.014;2024-02-23T12:47:00;1.65;;;0.93;;
75894;SDS011;64573;50.328;15.014;2024-02-23T12:49:26;1.58;;;0.90;;
75894;SDS011;64573;50.328;15.014;2024-02-23T12:51:51;1.33;;;0.75;;
75894;SDS011;64573;50.328;15.014;2024-02-23T12:54:17;7.50;;;1.00;;
75894;SDS011;64573;50.328;15.014;2024-02-23T12:56:42;2.20;;;0.90;;
75894;SDS011;64573;50.328;15.014;2024-02-23T12:59:07;2.58;;;1.00;;
75894;SDS011;64573;50.328;15.014;2024-02-23T13:01:34;2.78;;;1.02;;
75894;SDS011;64573;50.328;15.014;2024-02-23T13:04:02;2.33;;;0.82;;
75894;SDS011;64573;50.328;15.014;2024-02-23T13:06:34;1.60;;;0.90;;
75894;SDS011;64573;50.328;15.014;2024-02-23T13:09:02;1.45;;;0.80;;
75894;SDS011;64573;50.328;15.014;2024-02-23T13:11:28;2.65;;;0.80;;
75894;SDS011;64573;50.328;15.014;2024-02-23T13:13:54;1.90;;;0.90;;
75894;SDS011;64573;50.328;15.014;2024-02-23T13:16:20;3.15;;;0.80;;
75894;SDS011;64573;50.328;15.014;2024-02-23T13:18:45;5.97;;;1.27;;
75894;SDS011;64573;50.328;15.014;2024-02-23T13:21:11;2.53;;;1.00;;
75894;SDS011;64573;50.328;15.014;2024-02-23T13:23:37;1.77;;;1.08;;
75894;SDS011;64573;50.328;15.014;2024-02-23T13:26:03;2.75;;;1.00;;
75894;SDS011;64573;50.328;15.014;2024-02-23T13:28:29;2.65;;;0.80;;
75894;SDS011;64573;50.328;15.014;2024-02-23T13:30:54;2.10;;;1.00;;
75894;SDS011;64573;50.328;15.014;2024-02-23T13:33:20;2.78;;;1.08;;
75894;SDS011;64573;50.328;15.014;2024-02-23T13:35:47;2.15;;;1.13;;
75894;SDS011;64573;50.328;15.014;2024-02-23T13:38:12;3.17;;;1.27;;
75894;SDS011;64573;50.328;15.014;2024-02-23T13:40:38;5.82;;;1.83;;
75894;SDS011;64573;50.328;15.014;2024-02-23T13:43:04;3.10;;;1.48;;
75894;SDS011;64573;50.328;15.014;2024-02-23T13:45:30;11.50;;;1.73;;
75894;SDS011;64573;50.328;15.014;2024-02-23T13:47:59;5.43;;;1.38;;
75894;SDS011;64573;50.328;15.014;2024-02-23T13:50:25;3.88;;;1.40;;
75894;SDS011;64573;50.328;15.014;2024-02-23T13:52:52;5.93;;;1.30;;
75894;SDS011;64573;50.328;15.014;2024-02-23T13:55:18;4.25;;;1.48;;
75894;SDS011;64573;50.328;15.014;2024-02-23T13:57:45;3.72;;;1.48;;
75894;SDS011;64573;50.328;15.014;2024-02-23T14:00:12;3.05;;;1.27;;
75894;SDS011;64573;50.328;15.014;2024-02-23T14:02:38;3.08;;;1.48;;
75894;SDS011;64573;50.328;15.014;2024-02-23T14:05:07;4.55;;;1.42;;
75894;SDS011;64573;50.328;15.014;2024-02-23T14:07:35;2.65;;;1.17;;
75894;SDS011;64573;50.328;15.014;2024-02-23T14:10:01;5.40;;;1.65;;
75894;SDS011;64573;50.328;15.014;2024-02-23T14:12:27;3.33;;;1.25;;
75894;SDS011;64573;50.328;15.014;2024-02-23T14:14:54;3.78;;;1.00;;
75894;SDS011;64573;50.328;15.014;2024-02-23T14:17:19;1.52;;;0.85;;
75894;SDS011;64573;50.328;15.014;2024-02-23T14:19:44;3.58;;;1.20;;
75894;SDS011;64573;50.328;15.014;2024-02-23T14:22:10;1.58;;;1.00;;
75894;SDS011;64573;50.328;15.014;2024-02-23T14:24:37;3.22;;;0.95;;
75894;SDS011;64573;50.328;15.014;2024-02-23T14:27:03;2.72;;;1.05;;
75894;SDS011;64573;50.328;15.014;2024-02-23T14:29:28;4.43;;;1.38;;
75894;SDS011;64573;50.328;15.014;2024-02-23T14:31:54;2.70;;;1.02;;
75894;SDS011;64573;50.328;15.014;2024-02-23T14:34:19;3.42;;;0.98;;
75894;SDS011;64573;50.328;15.014;2024-02-23T14:36:50;2.70;;;0.90;;